createdAt,value
2022-11-04T00:00:29.900Z,0.00
2022-11-04T00:02:06.834Z,0.00
2022-11-04T00:03:19.232Z,0.00
2022-11-04T00:03:36.572Z,0.00
2022-11-04T00:04:34.504Z,0.00
2022-11-04T00:05:34.789Z,0.00
2022-11-04T00:06:55.555Z,0.00
2022-11-04T00:07:32.926Z,0.00
2022-11-04T00:08:31.986Z,0.00
2022-11-04T00:09:30.977Z,0.00
2022-11-04T00:10:34.511Z,0.00
2022-11-04T00:11:46.693Z,0.00
2022-11-04T00:12:38.805Z,0.00
2022-11-04T00:13:32.435Z,0.00
2022-11-04T00:14:41.757Z,0.00
2022-11-04T00:15:34.791Z,0.00
2022-11-04T00:16:32.360Z,0.00
2022-11-04T00:17:31.687Z,0.00
2022-11-04T00:18:26.613Z,0.00
2022-11-04T00:19:26.509Z,0.00
2022-11-04T00:20:26.696Z,0.00
2022-11-04T00:21:26.540Z,0.00
2022-11-04T00:22:26.544Z,0.00
2022-11-04T00:23:26.510Z,0.00
2022-11-04T00:24:26.571Z,0.00
2022-11-04T00:25:26.467Z,0.00
2022-11-04T00:26:26.409Z,0.00
2022-11-04T00:27:26.499Z,0.00
2022-11-04T00:28:26.710Z,0.00
2022-11-04T00:29:26.395Z,0.00
2022-11-04T00:30:26.537Z,0.00
2022-11-04T00:31:26.750Z,0.00
2022-11-04T00:32:26.404Z,0.00
2022-11-04T00:33:26.283Z,0.00
2022-11-04T00:34:26.562Z,0.00
2022-11-04T00:35:26.288Z,0.00
2022-11-04T00:36:26.611Z,0.00
2022-11-04T00:37:26.300Z,0.00
2022-11-04T00:38:26.275Z,0.00
2022-11-04T00:39:26.163Z,0.00
2022-11-04T00:40:26.335Z,0.00
2022-11-04T00:41:26.930Z,0.00
2022-11-04T00:42:26.157Z,0.00
2022-11-04T00:43:26.183Z,0.00
2022-11-04T00:44:26.148Z,0.00
2022-11-04T00:45:26.165Z,0.00
2022-11-04T00:46:26.319Z,0.00
2022-11-04T00:47:26.304Z,0.00
2022-11-04T00:48:26.059Z,0.00
2022-11-04T00:49:26.105Z,0.00
2022-11-04T00:50:26.069Z,0.00
2022-11-04T00:51:26.043Z,0.00
2022-11-04T00:52:26.164Z,0.00
2022-11-04T00:53:26.118Z,0.00
2022-11-04T00:54:25.978Z,0.00
2022-11-04T00:55:26.037Z,0.00
2022-11-04T00:56:25.989Z,0.00
2022-11-04T00:57:26.007Z,0.00
2022-11-04T00:58:25.868Z,0.00
2022-11-04T00:59:25.895Z,0.00
2022-11-04T01:00:26.021Z,0.00
2022-11-04T01:01:26.175Z,0.00
2022-11-04T01:02:26.255Z,0.00
2022-11-04T01:03:26.007Z,0.00
2022-11-04T01:04:26.059Z,0.00
2022-11-04T01:05:26.030Z,0.00
2022-11-04T01:06:25.995Z,0.00
2022-11-04T01:07:26.053Z,0.00
2022-11-04T01:08:25.908Z,0.00
2022-11-04T01:09:25.871Z,0.00
2022-11-04T01:10:25.983Z,0.00
2022-11-04T01:11:25.926Z,0.00
2022-11-04T01:12:27.098Z,0.00
2022-11-04T01:13:25.783Z,0.00
2022-11-04T01:14:26.761Z,0.00
2022-11-04T01:15:25.978Z,0.00
2022-11-04T01:16:25.789Z,0.00
2022-11-04T01:17:25.921Z,0.00
2022-11-04T01:18:25.965Z,0.00
2022-11-04T01:19:25.886Z,0.00
2022-11-04T01:20:25.760Z,0.00
2022-11-04T01:21:25.704Z,0.00
2022-11-04T01:22:25.789Z,0.00
2022-11-04T01:23:25.673Z,0.00
2022-11-04T01:24:25.634Z,0.00
2022-11-04T01:25:26.121Z,0.00
2022-11-04T01:26:25.651Z,0.00
2022-11-04T01:27:25.607Z,0.00
2022-11-04T01:28:25.696Z,0.00
2022-11-04T01:29:25.568Z,0.00
2022-11-04T01:30:25.600Z,0.00
2022-11-04T01:31:25.687Z,0.00
2022-11-04T01:32:25.575Z,0.00
2022-11-04T01:33:25.687Z,0.00
2022-11-04T01:34:25.684Z,0.00
2022-11-04T01:35:25.494Z,0.00
2022-11-04T01:36:25.635Z,0.00
2022-11-04T01:37:25.433Z,0.00
2022-11-04T01:38:25.469Z,0.00
2022-11-04T01:39:25.656Z,0.00
2022-11-04T01:40:25.501Z,0.00
2022-11-04T01:41:25.561Z,0.00
2022-11-04T01:42:25.440Z,0.00
2022-11-04T01:43:25.586Z,0.00
2022-11-04T01:44:25.300Z,0.00
2022-11-04T01:45:25.270Z,0.00
2022-11-04T01:46:25.314Z,0.00
2022-11-04T01:47:25.243Z,0.00
2022-11-04T01:48:25.264Z,0.00
2022-11-04T01:49:25.283Z,0.00
2022-11-04T01:50:25.712Z,0.00
2022-11-04T01:51:25.122Z,0.00
2022-11-04T01:52:25.214Z,0.00
2022-11-04T01:53:25.476Z,0.00
2022-11-04T01:54:25.252Z,0.00
2022-11-04T01:55:25.226Z,0.00
2022-11-04T01:56:25.154Z,0.00
2022-11-04T01:57:25.114Z,0.00
2022-11-04T01:58:25.127Z,0.00
2022-11-04T01:59:25.190Z,0.00
2022-11-04T02:00:25.044Z,0.00
2022-11-04T02:01:25.256Z,0.00
2022-11-04T02:02:25.192Z,0.00
2022-11-04T02:03:25.065Z,0.00
2022-11-04T02:04:24.949Z,0.00
2022-11-04T02:05:24.980Z,0.00
2022-11-04T02:06:24.989Z,0.00
2022-11-04T02:07:25.079Z,0.00
2022-11-04T02:08:25.038Z,0.00
2022-11-04T02:09:25.135Z,0.00
2022-11-04T02:10:25.170Z,0.00
2022-11-04T02:11:25.058Z,0.00
2022-11-04T02:12:24.952Z,0.00
2022-11-04T02:13:24.964Z,0.00
2022-11-04T02:14:24.937Z,0.00
2022-11-04T02:15:24.820Z,0.00
2022-11-04T02:16:25.039Z,0.00
2022-11-04T02:17:24.897Z,0.00
2022-11-04T02:18:25.200Z,0.00
2022-11-04T02:19:24.856Z,0.00
2022-11-04T02:20:25.636Z,0.00
2022-11-04T02:21:24.908Z,0.00
2022-11-04T02:22:24.725Z,0.00
2022-11-04T02:23:24.846Z,0.00
2022-11-04T02:24:24.774Z,0.00
2022-11-04T02:25:24.650Z,0.00
2022-11-04T02:26:24.711Z,0.00
2022-11-04T02:27:24.701Z,0.00
2022-11-04T02:28:24.665Z,0.00
2022-11-04T02:29:24.730Z,0.00
2022-11-04T02:30:24.727Z,0.00
2022-11-04T02:31:24.640Z,0.00
2022-11-04T02:32:24.587Z,0.00
2022-11-04T02:33:24.637Z,0.00
2022-11-04T02:34:24.541Z,0.00
2022-11-04T02:35:24.744Z,0.00
2022-11-04T02:36:24.658Z,0.00
2022-11-04T02:37:24.549Z,0.00
2022-11-04T02:38:24.539Z,0.00
2022-11-04T02:39:24.514Z,0.00
2022-11-04T02:40:24.524Z,0.00
2022-11-04T02:41:24.472Z,0.00
2022-11-04T02:42:24.582Z,0.00
2022-11-04T02:43:24.553Z,0.00
2022-11-04T02:44:24.729Z,0.00
2022-11-04T02:45:24.497Z,0.00
2022-11-04T02:46:24.464Z,0.00
2022-11-04T02:47:24.426Z,0.00
2022-11-04T02:48:24.332Z,0.00
2022-11-04T02:49:48.654Z,0.00
2022-11-04T02:50:28.608Z,0.00
2022-11-04T02:51:36.128Z,0.00
2022-11-04T02:53:02.100Z,0.00
2022-11-04T02:53:35.162Z,0.00
2022-11-04T02:54:51.465Z,0.00
2022-11-04T02:55:29.711Z,0.00
2022-11-04T02:56:33.511Z,0.00
2022-11-04T02:57:52.847Z,0.00
2022-11-04T02:58:47.770Z,0.00
2022-11-04T03:01:37.043Z,0.00
2022-11-04T03:02:34.803Z,0.00
2022-11-04T03:03:57.596Z,0.00
2022-11-04T03:04:58.870Z,0.00
2022-11-04T03:05:33.632Z,0.00
2022-11-04T03:06:38.988Z,0.00
2022-11-04T03:07:40.703Z,0.00
2022-11-04T03:08:18.567Z,0.00
2022-11-04T03:09:18.594Z,0.00
2022-11-04T03:10:18.484Z,0.00
2022-11-04T03:11:18.574Z,0.00
2022-11-04T03:12:18.418Z,0.00
2022-11-04T03:13:18.510Z,0.00
2022-11-04T03:14:18.356Z,0.00
2022-11-04T03:15:18.415Z,0.00
2022-11-04T03:16:18.365Z,0.00
2022-11-04T03:17:18.261Z,0.00
2022-11-04T03:18:18.314Z,0.00
2022-11-04T03:19:18.375Z,0.00
2022-11-04T03:20:18.274Z,0.00
2022-11-04T03:21:18.291Z,0.00
2022-11-04T03:22:18.457Z,0.00
2022-11-04T03:23:19.239Z,0.00
2022-11-04T03:24:18.323Z,0.00
2022-11-04T03:25:18.288Z,0.00
2022-11-04T03:26:18.199Z,0.00
2022-11-04T03:27:18.165Z,0.00
2022-11-04T03:28:18.216Z,0.00
2022-11-04T03:29:18.105Z,0.00
2022-11-04T03:31:18.228Z,0.00
2022-11-04T03:32:18.227Z,0.00
2022-11-04T03:33:18.150Z,0.00
2022-11-04T03:34:18.220Z,0.00
2022-11-04T03:35:18.099Z,0.00
2022-11-04T03:36:18.025Z,0.00
2022-11-04T03:37:18.114Z,0.00
2022-11-04T03:38:26.212Z,0.00
2022-11-04T03:39:30.232Z,0.00
2022-11-04T03:40:27.759Z,0.00
2022-11-04T03:41:40.313Z,0.00
2022-11-04T03:42:27.383Z,0.00
2022-11-04T03:43:29.373Z,0.00
2022-11-04T03:44:32.294Z,0.00
2022-11-04T03:45:29.796Z,0.00
2022-11-04T03:46:54.180Z,0.00
2022-11-04T03:47:51.497Z,0.00
2022-11-04T03:48:41.035Z,0.00
2022-11-04T03:49:28.999Z,0.00
2022-11-04T03:50:27.906Z,0.00
2022-11-04T03:51:28.790Z,0.00
2022-11-04T03:52:31.479Z,0.00
2022-11-04T03:53:29.020Z,0.00
2022-11-04T03:54:32.968Z,0.00
2022-11-04T03:55:42.126Z,0.00
2022-11-04T03:56:35.906Z,0.00
2022-11-04T03:57:23.591Z,0.00
2022-11-04T03:58:57.338Z,0.00
2022-11-04T03:59:59.527Z,0.00
2022-11-04T04:18:58.844Z,0.00
2022-11-04T04:19:31.346Z,0.00
2022-11-04T04:20:29.464Z,0.00
2022-11-04T04:21:27.885Z,0.00
2022-11-04T04:22:34.357Z,0.00
2022-11-04T04:24:02.662Z,0.00
2022-11-04T04:24:57.649Z,0.00
2022-11-04T04:25:34.383Z,0.00
2022-11-04T04:26:42.950Z,0.00
2022-11-04T04:27:57.609Z,0.00
2022-11-04T04:28:56.386Z,0.00
2022-11-04T04:29:58.915Z,0.00
2022-11-04T04:30:43.474Z,0.00
2022-11-04T04:31:40.241Z,0.00
2022-11-04T04:37:28.827Z,0.00
2022-11-04T04:38:27.743Z,0.00
2022-11-04T04:39:03.247Z,0.00
2022-11-04T04:40:25.090Z,0.00
2022-11-04T04:41:28.530Z,0.00
2022-11-04T04:42:01.507Z,0.00
2022-11-04T04:43:02.734Z,0.00
2022-11-04T04:44:00.042Z,0.00
2022-11-04T04:45:18.195Z,0.00
2022-11-04T04:46:01.203Z,0.00
2022-11-04T04:47:01.799Z,0.00
2022-11-04T04:48:07.811Z,0.00
2022-11-04T04:48:55.244Z,0.00
2022-11-04T05:43:02.572Z,0.00
2022-11-04T05:44:03.701Z,0.00
2022-11-04T05:45:03.801Z,0.00
2022-11-04T05:46:02.487Z,0.00
2022-11-04T05:47:04.414Z,0.00
2022-11-04T05:48:02.177Z,0.00
2022-11-04T05:49:02.301Z,0.00
2022-11-04T05:50:02.513Z,0.00
2022-11-04T05:51:02.316Z,0.00
2022-11-04T05:52:02.394Z,0.00
2022-11-04T05:53:02.127Z,0.00
2022-11-04T05:54:02.132Z,0.00
2022-11-04T05:55:02.214Z,0.00
2022-11-04T05:56:02.233Z,0.00
2022-11-04T05:57:02.634Z,0.00
2022-11-04T05:58:49.767Z,0.00
2022-11-04T05:59:25.585Z,0.00
2022-11-04T06:00:07.626Z,0.00
2022-11-04T06:01:09.396Z,0.00
2022-11-04T06:02:11.300Z,0.00
2022-11-04T06:03:16.564Z,0.00
2022-11-04T06:13:27.548Z,0.00
2022-11-04T06:13:56.491Z,0.00
2022-11-04T06:15:03.068Z,0.00
2022-11-04T06:27:58.613Z,5.62
2022-11-04T06:28:32.203Z,5.62
2022-11-04T06:44:40.337Z,22.50
2022-11-04T06:45:56.972Z,22.50
2022-11-04T06:48:22.907Z,22.50
2022-11-04T06:49:02.777Z,28.12
2022-11-04T06:50:03.987Z,28.12
2022-11-04T06:51:37.608Z,28.12
2022-11-04T08:04:41.831Z,303.75
2022-11-04T08:05:41.449Z,320.62
2022-11-04T08:06:42.545Z,320.62
2022-11-04T08:07:40.682Z,315.00
2022-11-04T08:08:41.856Z,309.38
2022-11-04T08:09:41.681Z,298.12
2022-11-04T08:10:41.511Z,286.88
2022-11-04T08:11:40.573Z,281.25
2022-11-04T08:12:40.582Z,275.62
2022-11-04T08:13:41.220Z,270.00
2022-11-04T08:14:44.974Z,258.75
2022-11-04T08:15:40.614Z,253.12
2022-11-04T08:16:43.478Z,247.50
2022-11-04T08:17:40.811Z,241.88
2022-11-04T08:18:40.920Z,230.62
2022-11-04T08:19:42.259Z,230.62
2022-11-04T08:20:41.166Z,230.62
2022-11-04T08:21:40.331Z,241.88
2022-11-04T08:55:35.601Z,489.38
2022-11-04T09:20:14.508Z,528.75
2022-11-04T09:21:08.852Z,534.38
2022-11-04T09:22:23.018Z,534.38
2022-11-04T09:22:52.297Z,534.38
2022-11-04T09:24:00.163Z,534.38
2022-11-04T09:25:03.127Z,523.12
2022-11-04T09:26:05.163Z,511.88
2022-11-04T09:26:53.690Z,500.62
2022-11-04T09:27:59.104Z,483.75
2022-11-04T09:29:18.948Z,466.88
2022-11-04T09:30:25.603Z,450.00
2022-11-04T09:31:05.646Z,438.75
2022-11-04T09:32:00.047Z,438.75
2022-11-04T09:32:57.567Z,444.38
2022-11-04T09:34:15.335Z,461.25
2022-11-04T09:35:19.806Z,483.75
2022-11-04T09:35:49.951Z,511.88
2022-11-04T10:02:39.311Z,635.62
2022-11-04T10:06:47.390Z,691.88
2022-11-04T10:10:16.032Z,0.00
2022-11-04T10:10:58.859Z,0.00
2022-11-04T10:12:02.203Z,0.00
2022-11-04T10:13:00.391Z,0.00
2022-11-04T10:13:59.763Z,0.00
2022-11-04T10:15:00.972Z,0.00
2022-11-04T10:16:22.956Z,0.00
2022-11-04T10:17:00.963Z,0.00
2022-11-04T10:18:02.487Z,0.00
2022-11-04T10:19:33.245Z,0.00
2022-11-04T10:20:25.928Z,0.00
2022-11-04T10:21:03.183Z,0.00
2022-11-04T10:21:59.030Z,0.00
2022-11-04T10:23:28.634Z,0.00
2022-11-04T10:27:57.970Z,461.25
2022-11-04T10:28:37.435Z,450.00
2022-11-04T10:29:35.235Z,461.25
2022-11-04T10:38:05.223Z,630.00
2022-11-04T10:39:27.364Z,618.75
2022-11-04T10:40:07.709Z,585.00
2022-11-04T10:49:06.752Z,0.00
2022-11-04T10:50:27.155Z,0.00
2022-11-04T10:51:01.160Z,0.00
2022-11-04T10:52:02.368Z,0.00
2022-11-04T10:53:03.348Z,0.00
2022-11-04T10:54:07.583Z,0.00
2022-11-04T10:55:04.057Z,0.00
2022-11-04T10:56:06.830Z,0.00
2022-11-04T10:57:19.834Z,0.00
2022-11-04T10:58:20.208Z,0.00
2022-11-04T10:59:03.351Z,0.00
2022-11-04T11:00:14.614Z,0.00
2022-11-04T11:01:04.424Z,0.00
2022-11-04T11:02:09.884Z,0.00
2022-11-04T11:03:20.539Z,0.00
2022-11-04T11:04:02.440Z,0.00
2022-11-04T11:05:21.077Z,0.00
2022-11-04T11:07:33.442Z,0.00
2022-11-04T11:09:58.494Z,0.00
2022-11-04T11:12:53.337Z,0.00
2022-11-04T11:13:56.477Z,0.00
2022-11-04T11:15:32.545Z,0.00
2022-11-04T11:16:04.775Z,0.00
2022-11-04T11:16:58.123Z,0.00
2022-11-04T11:17:55.384Z,0.00
2022-11-04T11:19:14.254Z,0.00
2022-11-04T11:19:58.560Z,0.00
2022-11-04T11:20:57.418Z,0.00
2022-11-04T11:22:10.906Z,0.00
2022-11-04T11:22:40.480Z,0.00
2022-11-04T11:24:22.670Z,0.00
2022-11-04T11:24:45.233Z,0.00
2022-11-04T11:25:48.413Z,0.00
2022-11-04T11:27:08.989Z,0.00
2022-11-04T11:41:23.987Z,585.00
2022-11-04T11:41:25.803Z,607.50
2022-11-04T11:42:28.090Z,601.88
2022-11-04T11:43:29.509Z,635.62
2022-11-04T11:47:37.391Z,804.38
2022-11-04T11:48:06.896Z,871.88
2022-11-04T11:49:02.302Z,905.62
2022-11-04T11:50:15.780Z,855.00
2022-11-04T11:51:09.713Z,883.12
2022-11-04T11:52:27.481Z,877.50
2022-11-04T11:53:19.610Z,753.75
2022-11-04T11:54:35.467Z,680.62
2022-11-04T11:55:13.529Z,601.88
2022-11-04T11:56:02.641Z,697.50
2022-11-04T11:57:13.695Z,708.75
2022-11-04T12:01:44.383Z,731.25
2022-11-04T12:02:33.807Z,770.62
2022-11-04T12:03:29.647Z,708.75
2022-11-04T12:06:18.235Z,630.00
2022-11-04T12:09:33.989Z,686.25
2022-11-04T12:10:07.294Z,618.75
2022-11-04T12:11:05.732Z,641.25
2022-11-04T12:12:03.471Z,821.25
2022-11-04T12:13:23.610Z,855.00
2022-11-04T12:14:06.804Z,894.38
2022-11-04T12:15:10.864Z,821.25
2022-11-04T12:16:12.129Z,894.38
2022-11-04T12:17:23.638Z,697.50
2022-11-04T12:18:06.137Z,697.50
2022-11-04T12:19:04.825Z,736.88
2022-11-04T12:20:18.244Z,669.38
2022-11-04T12:21:04.177Z,652.50
2022-11-04T12:22:04.384Z,652.50
2022-11-04T12:23:36.223Z,708.75
2022-11-04T12:24:29.565Z,798.75
2022-11-04T12:25:15.015Z,821.25
2022-11-04T12:27:56.275Z,0.00
2022-11-04T12:29:20.901Z,0.00
2022-11-04T12:29:57.824Z,0.00
2022-11-04T12:30:52.522Z,0.00
2022-11-04T12:32:06.554Z,0.00
2022-11-04T12:33:09.630Z,0.00
2022-11-04T12:33:58.260Z,0.00
2022-11-04T12:35:02.105Z,0.00
2022-11-04T12:36:33.075Z,0.00
2022-11-04T12:37:01.449Z,0.00
2022-11-04T12:37:57.025Z,0.00
2022-11-04T12:39:27.141Z,0.00
2022-11-04T12:40:29.420Z,0.00
2022-11-04T12:41:26.319Z,0.00
2022-11-04T12:42:20.742Z,0.00
2022-11-04T12:42:59.563Z,0.00
2022-11-04T12:44:00.882Z,0.00
2022-11-04T12:44:58.216Z,0.00
2022-11-04T12:45:57.935Z,0.00
2022-11-04T12:47:00.722Z,0.00
2022-11-04T12:59:35.386Z,680.62
2022-11-04T13:00:37.401Z,669.38
2022-11-04T13:01:29.001Z,658.12
2022-11-04T13:02:55.498Z,646.88
2022-11-04T13:04:10.017Z,551.25
2022-11-04T13:04:29.844Z,517.50
2022-11-04T13:05:28.553Z,500.62
2022-11-04T13:08:51.835Z,511.88
2022-11-04T13:09:46.557Z,517.50
2022-11-04T13:11:01.155Z,545.62
2022-11-04T13:11:33.797Z,517.50
2022-11-04T13:12:25.183Z,500.62
2022-11-04T13:13:24.886Z,489.38
2022-11-04T13:14:42.695Z,495.00
2022-11-04T13:15:29.965Z,528.75
2022-11-04T13:17:07.058Z,523.12
2022-11-04T13:17:28.176Z,472.50
2022-11-04T13:18:28.464Z,433.12
2022-11-04T13:19:30.798Z,388.12
2022-11-04T13:21:00.803Z,303.75
2022-11-04T13:26:51.992Z,0.00
2022-11-04T13:27:34.481Z,0.00
2022-11-04T13:28:36.911Z,0.00
2022-11-04T13:29:34.250Z,0.00
2022-11-04T13:30:37.039Z,0.00
2022-11-04T13:31:53.991Z,0.00
2022-11-04T13:32:37.779Z,0.00
2022-11-04T13:34:02.051Z,0.00
2022-11-04T13:35:06.800Z,0.00
2022-11-04T13:35:57.498Z,0.00
2022-11-04T13:36:35.515Z,0.00
2022-11-04T13:37:54.863Z,0.00
2022-11-04T13:38:58.303Z,0.00
2022-11-04T13:39:44.330Z,0.00
2022-11-04T13:40:47.803Z,0.00
2022-11-04T13:41:32.461Z,0.00
2022-11-04T13:42:51.639Z,0.00
2022-11-04T13:43:38.183Z,0.00
2022-11-04T13:45:10.360Z,0.00
2022-11-04T13:45:46.914Z,0.00
2022-11-04T13:47:21.620Z,0.00
2022-11-04T13:47:35.772Z,0.00
2022-11-04T13:48:35.711Z,0.00
2022-11-04T13:49:59.779Z,0.00
2022-11-04T13:50:57.947Z,0.00
2022-11-04T13:51:58.387Z,0.00
2022-11-04T13:52:35.631Z,0.00
2022-11-04T13:53:42.298Z,0.00
2022-11-04T13:54:42.728Z,0.00
2022-11-04T13:55:43.426Z,0.00
2022-11-04T13:56:35.115Z,0.00
2022-11-04T13:57:34.621Z,0.00
2022-11-04T13:58:32.201Z,0.00
2022-11-04T13:59:46.750Z,0.00
2022-11-04T14:00:35.168Z,0.00
2022-11-04T14:01:33.791Z,0.00
2022-11-04T14:02:31.387Z,0.00
2022-11-04T14:03:30.802Z,0.00
2022-11-04T14:04:42.310Z,0.00
2022-11-04T14:05:34.606Z,0.00
2022-11-04T14:06:39.887Z,0.00
2022-11-04T14:07:58.539Z,0.00
2022-11-04T14:08:49.500Z,0.00
2022-11-04T14:09:34.418Z,0.00
2022-11-04T14:10:38.271Z,0.00
2022-11-04T14:11:40.105Z,0.00
2022-11-04T14:12:46.679Z,0.00
2022-11-04T14:13:36.267Z,0.00
2022-11-04T14:14:34.482Z,0.00
2022-11-04T14:16:03.652Z,0.00
2022-11-04T14:16:37.709Z,0.00
2022-11-04T14:17:30.844Z,0.00
2022-11-04T14:18:36.291Z,0.00
2022-11-04T14:19:33.567Z,0.00
2022-11-04T14:20:40.261Z,0.00
2022-11-04T14:21:33.118Z,0.00
2022-11-04T14:22:38.516Z,0.00
2022-11-04T14:23:39.512Z,0.00
2022-11-04T14:24:33.729Z,0.00
2022-11-04T14:25:49.539Z,0.00
2022-11-04T14:27:20.006Z,0.00
2022-11-04T14:27:34.547Z,0.00
2022-11-04T14:29:01.661Z,0.00
2022-11-04T14:29:34.553Z,0.00
2022-11-04T14:30:32.049Z,0.00
2022-11-04T14:38:29.211Z,196.88
2022-11-04T14:39:33.052Z,185.62
2022-11-04T14:40:28.958Z,168.75
2022-11-04T14:41:39.633Z,151.88
2022-11-04T14:42:35.947Z,135.00
2022-11-04T14:43:33.957Z,118.12
2022-11-04T14:44:34.614Z,106.88
2022-11-04T14:45:43.294Z,90.00
2022-11-04T14:46:35.216Z,73.12
2022-11-04T14:47:32.949Z,67.50
2022-11-04T14:48:45.492Z,61.88
2022-11-04T14:49:33.475Z,61.88
2022-11-04T14:50:58.064Z,67.50
2022-11-04T14:51:36.464Z,67.50
2022-11-04T14:52:43.998Z,67.50
2022-11-04T14:53:33.980Z,67.50
2022-11-04T14:55:02.226Z,67.50
2022-11-04T14:55:29.069Z,67.50
2022-11-04T14:56:58.774Z,67.50
2022-11-04T14:57:34.738Z,73.12
2022-11-04T14:58:35.443Z,73.12
2022-11-04T15:01:05.306Z,0.00
2022-11-04T15:16:02.448Z,90.00
2022-11-04T15:16:57.650Z,95.62
2022-11-04T15:20:26.107Z,90.00
2022-11-04T15:20:58.070Z,84.38
2022-11-04T15:22:03.589Z,78.75
2022-11-04T15:23:14.857Z,73.12
2022-11-04T15:23:50.320Z,73.12
2022-11-04T15:25:00.114Z,67.50
2022-11-04T15:26:00.692Z,61.88
2022-11-04T15:26:54.654Z,56.25
2022-11-04T15:28:34.242Z,56.25
2022-11-04T15:28:58.215Z,50.62
2022-11-04T15:30:01.078Z,45.00
2022-11-04T15:30:58.772Z,39.38
2022-11-04T15:32:04.967Z,39.38
2022-11-04T15:33:00.992Z,33.75
2022-11-04T15:34:00.019Z,28.12
2022-11-04T15:34:54.535Z,28.12
2022-11-04T15:36:03.305Z,22.50
2022-11-04T15:36:59.780Z,22.50
2022-11-04T15:38:00.054Z,16.88
2022-11-04T15:38:52.451Z,16.88
2022-11-04T15:39:57.399Z,16.88
2022-11-04T15:40:59.328Z,16.88
2022-11-04T15:41:58.707Z,16.88
2022-11-04T15:43:25.432Z,16.88
2022-11-04T15:43:54.037Z,16.88
2022-11-04T15:45:00.855Z,16.88
2022-11-04T15:45:59.269Z,11.25
2022-11-04T15:47:00.734Z,11.25
2022-11-04T15:48:32.520Z,11.25
2022-11-04T15:48:56.491Z,5.62
2022-11-04T15:49:58.800Z,5.62
2022-11-04T15:51:04.716Z,5.62
2022-11-04T15:52:08.204Z,5.62
2022-11-04T15:52:58.444Z,5.62
2022-11-04T15:54:26.990Z,0.00
2022-11-04T15:55:00.509Z,0.00
2022-11-04T15:55:58.686Z,0.00
2022-11-04T15:56:57.590Z,0.00
2022-11-04T15:58:06.132Z,0.00
2022-11-04T15:59:03.045Z,0.00
2022-11-04T16:00:09.441Z,0.00
2022-11-04T16:05:46.634Z,0.00
2022-11-04T16:06:34.041Z,0.00
2022-11-04T16:07:25.619Z,0.00
2022-11-04T16:08:38.440Z,0.00
2022-11-04T16:09:17.132Z,0.00
2022-11-04T16:10:16.935Z,0.00
2022-11-04T16:11:17.348Z,0.00
2022-11-04T16:12:17.253Z,0.00
2022-11-04T16:13:16.764Z,0.00
2022-11-04T16:14:16.954Z,0.00
2022-11-04T16:15:16.948Z,0.00
2022-11-04T16:16:23.798Z,0.00
2022-11-04T16:17:19.005Z,0.00
2022-11-04T16:18:25.424Z,0.00
2022-11-04T16:19:43.006Z,0.00
2022-11-04T16:20:28.773Z,0.00
2022-11-04T16:21:21.890Z,0.00
2022-11-04T16:22:28.196Z,0.00
2022-11-04T16:40:26.301Z,0.00
2022-11-04T16:41:55.785Z,0.00
2022-11-04T16:43:36.637Z,0.00
2022-11-04T16:44:36.306Z,0.00
2022-11-04T16:45:41.234Z,0.00
2022-11-04T16:46:36.422Z,0.00
2022-11-04T16:47:36.238Z,0.00
2022-11-04T16:48:36.712Z,0.00
2022-11-04T16:49:39.357Z,0.00
2022-11-04T16:50:36.273Z,0.00
2022-11-04T16:51:36.267Z,0.00
2022-11-04T16:52:40.231Z,0.00
2022-11-04T16:53:37.207Z,0.00
2022-11-04T16:54:36.160Z,0.00
2022-11-04T16:55:36.184Z,0.00
2022-11-04T16:56:36.303Z,0.00
2022-11-04T16:57:36.312Z,0.00
2022-11-04T16:58:36.106Z,0.00
2022-11-04T16:59:36.219Z,0.00
2022-11-04T17:00:36.217Z,0.00
2022-11-04T17:01:36.291Z,0.00
2022-11-04T17:02:37.638Z,0.00
2022-11-04T17:03:36.999Z,0.00
2022-11-04T17:04:36.110Z,0.00
2022-11-04T17:05:36.149Z,0.00
2022-11-04T17:06:35.969Z,0.00
2022-11-04T17:07:52.450Z,0.00
2022-11-04T17:08:41.309Z,0.00
2022-11-04T17:09:45.499Z,0.00
2022-11-04T17:10:58.289Z,0.00
2022-11-04T17:11:50.242Z,0.00
2022-11-04T17:12:43.695Z,0.00
2022-11-04T17:14:10.019Z,0.00
2022-11-04T17:15:10.112Z,0.00
2022-11-04T17:15:49.456Z,0.00
2022-11-04T17:16:59.978Z,0.00
2022-11-04T17:17:49.611Z,0.00
2022-11-04T17:18:41.313Z,0.00
2022-11-04T17:19:47.889Z,0.00
2022-11-04T17:20:52.740Z,0.00
2022-11-04T17:21:46.495Z,0.00
2022-11-04T17:22:40.713Z,0.00
2022-11-04T17:23:46.369Z,0.00
2022-11-04T17:24:59.930Z,0.00
2022-11-04T17:25:57.656Z,0.00
2022-11-04T17:26:55.437Z,0.00
2022-11-04T17:27:35.905Z,0.00
2022-11-04T17:28:36.716Z,0.00
2022-11-04T17:29:35.714Z,0.00
2022-11-04T17:30:35.597Z,0.00
2022-11-04T17:31:36.349Z,0.00
2022-11-04T17:32:35.737Z,0.00
2022-11-04T17:33:35.524Z,0.00
2022-11-04T17:34:36.467Z,0.00
2022-11-04T17:35:35.650Z,0.00
2022-11-04T17:36:35.963Z,0.00
2022-11-04T17:37:35.648Z,0.00
2022-11-04T17:38:35.789Z,0.00
2022-11-04T17:39:35.986Z,0.00
2022-11-04T17:40:35.566Z,0.00
2022-11-04T17:41:35.776Z,0.00
2022-11-04T17:42:35.794Z,0.00
2022-11-04T17:43:35.824Z,0.00
2022-11-04T17:44:35.635Z,0.00
2022-11-04T17:45:35.435Z,0.00
2022-11-04T17:46:35.648Z,0.00
2022-11-04T17:47:35.438Z,0.00
2022-11-04T17:48:35.418Z,0.00
2022-11-04T17:49:35.445Z,0.00
2022-11-04T17:50:35.569Z,0.00
2022-11-04T17:51:35.563Z,0.00
2022-11-04T17:52:36.276Z,0.00
2022-11-04T17:53:35.386Z,0.00
2022-11-04T17:54:35.590Z,0.00
2022-11-04T17:55:35.661Z,0.00
2022-11-04T17:56:35.392Z,0.00
2022-11-04T17:57:35.475Z,0.00
2022-11-04T17:58:35.322Z,0.00
2022-11-04T17:59:37.060Z,0.00
2022-11-04T18:00:35.437Z,0.00
2022-11-04T18:01:35.561Z,0.00
2022-11-04T18:02:36.771Z,0.00
2022-11-04T18:03:35.349Z,0.00
2022-11-04T18:04:35.445Z,0.00
2022-11-04T18:05:35.152Z,0.00
2022-11-04T18:06:35.484Z,0.00
2022-11-04T18:07:35.345Z,0.00
2022-11-04T18:08:35.158Z,0.00
2022-11-04T18:09:35.082Z,0.00
2022-11-04T18:10:35.491Z,0.00
2022-11-04T18:11:35.283Z,0.00
2022-11-04T18:12:35.079Z,0.00
2022-11-04T18:13:35.289Z,0.00
2022-11-04T18:14:35.499Z,0.00
2022-11-04T18:15:35.311Z,0.00
2022-11-04T18:16:35.156Z,0.00
2022-11-04T18:17:35.457Z,0.00
2022-11-04T18:18:35.446Z,0.00
2022-11-04T18:19:35.034Z,0.00
2022-11-04T18:20:35.436Z,0.00
2022-11-04T18:21:35.059Z,0.00
2022-11-04T18:22:35.087Z,0.00
2022-11-04T18:23:35.085Z,0.00
2022-11-04T18:24:36.084Z,0.00
2022-11-04T18:25:35.293Z,0.00
2022-11-04T18:26:34.881Z,0.00
2022-11-04T18:27:35.515Z,0.00
2022-11-04T18:28:35.020Z,0.00
2022-11-04T18:29:35.124Z,0.00
2022-11-04T18:30:34.994Z,0.00
2022-11-04T18:31:35.016Z,0.00
2022-11-04T18:32:35.118Z,0.00
2022-11-04T18:33:35.644Z,0.00
2022-11-04T18:34:35.258Z,0.00
2022-11-04T18:35:35.073Z,0.00
2022-11-04T18:36:35.674Z,0.00
2022-11-04T18:37:35.256Z,0.00
2022-11-04T18:38:35.284Z,0.00
2022-11-04T18:39:34.896Z,0.00
2022-11-04T18:40:34.979Z,0.00
2022-11-04T18:41:34.798Z,0.00
2022-11-04T18:42:34.886Z,0.00
2022-11-04T18:43:34.796Z,0.00
2022-11-04T18:44:37.069Z,0.00
2022-11-04T18:45:34.863Z,0.00
2022-11-04T18:46:34.818Z,0.00
2022-11-04T18:47:35.673Z,0.00
2022-11-04T18:48:39.019Z,0.00
2022-11-04T18:49:38.039Z,0.00
2022-11-04T18:50:35.066Z,0.00
2022-11-04T18:51:35.087Z,0.00
2022-11-04T18:52:35.077Z,0.00
2022-11-04T18:53:35.794Z,0.00
2022-11-04T18:54:34.581Z,0.00
2022-11-04T18:55:35.076Z,0.00
2022-11-04T18:56:34.797Z,0.00
2022-11-04T18:57:34.597Z,0.00
2022-11-04T18:58:34.588Z,0.00
2022-11-04T18:59:34.991Z,0.00
2022-11-04T19:00:34.630Z,0.00
2022-11-04T19:01:34.622Z,0.00
2022-11-04T19:02:34.918Z,0.00
2022-11-04T19:03:34.759Z,0.00
2022-11-04T19:04:34.658Z,0.00
2022-11-04T19:05:34.641Z,0.00
2022-11-04T19:06:34.371Z,0.00
2022-11-04T19:07:34.573Z,0.00
2022-11-04T19:08:34.570Z,0.00
2022-11-04T19:09:51.495Z,0.00
2022-11-04T19:10:46.502Z,0.00
2022-11-04T19:11:35.280Z,0.00
2022-11-04T19:12:36.629Z,0.00
2022-11-04T19:13:34.284Z,0.00
2022-11-04T19:14:34.825Z,0.00
2022-11-04T19:15:34.332Z,0.00
2022-11-04T19:16:34.506Z,0.00
2022-11-04T19:17:34.330Z,0.00
2022-11-04T19:18:55.828Z,0.00
2022-11-04T19:22:39.652Z,0.00
2022-11-04T19:26:34.209Z,0.00
2022-11-04T19:27:28.717Z,0.00
2022-11-04T19:28:52.565Z,0.00
2022-11-04T19:29:37.056Z,0.00
2022-11-04T19:30:30.631Z,0.00
2022-11-04T19:31:40.490Z,0.00
2022-11-04T19:32:32.712Z,0.00
2022-11-04T19:33:36.706Z,0.00
2022-11-04T19:34:30.730Z,0.00
2022-11-04T19:35:27.990Z,0.00
2022-11-04T19:38:08.758Z,0.00
2022-11-04T19:38:40.607Z,0.00
2022-11-04T19:39:40.828Z,0.00
2022-11-04T19:40:40.724Z,0.00
2022-11-04T19:41:40.743Z,0.00
2022-11-04T19:42:41.671Z,0.00
2022-11-04T19:43:40.737Z,0.00
2022-11-04T19:44:40.828Z,0.00
2022-11-04T19:45:40.771Z,0.00